createdAt,value
2016-12-02T00:00:18.527Z,0
2016-12-02T00:01:28.544Z,0
2016-12-02T00:02:38.864Z,0
2016-12-02T00:03:48.879Z,0
2016-12-02T00:04:59.201Z,0
2016-12-02T00:06:09.221Z,0
2016-12-02T00:07:18.929Z,0
2016-12-02T00:08:29.254Z,0
2016-12-02T00:09:39.577Z,0
2016-12-02T00:10:49.587Z,0
2016-12-02T00:11:59.598Z,0
2016-12-02T00:13:09.616Z,0
2016-12-02T00:14:19.633Z,0
2016-12-02T00:15:29.639Z,0
2016-12-02T00:16:39.657Z,0
2016-12-02T00:17:49.990Z,0
2016-12-02T00:18:59.704Z,0
2016-12-02T00:20:10.032Z,0
2016-12-02T00:21:20.388Z,0
2016-12-02T00:22:30.405Z,0
2016-12-02T00:23:40.116Z,0
2016-12-02T00:24:50.445Z,0
2016-12-02T00:26:00.767Z,0
2016-12-02T00:27:10.818Z,0
2016-12-02T00:28:21.152Z,0
2016-12-02T00:29:31.476Z,0
2016-12-02T00:30:40.883Z,0
2016-12-02T00:31:50.901Z,0
2016-12-02T00:33:00.916Z,0
2016-12-02T00:34:11.245Z,0
2016-12-02T00:35:21.575Z,0
2016-12-02T00:36:31.267Z,0
2016-12-02T00:37:41.279Z,0
2016-12-02T00:38:51.287Z,0
2016-12-02T00:40:01.298Z,0
2016-12-02T00:41:11.011Z,0
2016-12-02T00:42:21.020Z,0
2016-12-02T00:43:30.718Z,0
2016-12-02T00:44:41.039Z,0
2016-12-02T00:45:51.361Z,0
2016-12-02T00:47:01.694Z,0
2016-12-02T00:48:11.706Z,0
2016-12-02T00:49:21.716Z,0
2016-12-02T00:50:32.043Z,0
2016-12-02T00:51:42.361Z,0
2016-12-02T00:52:52.687Z,0
2016-12-02T00:54:02.714Z,0
2016-12-02T00:55:13.025Z,0
2016-12-02T00:56:23.396Z,0
2016-12-02T00:57:33.419Z,0
2016-12-02T00:58:43.453Z,0
2016-12-02T00:59:53.786Z,0
2016-12-02T01:01:03.496Z,0
2016-12-02T01:02:13.549Z,0
2016-12-02T01:03:23.577Z,0
2016-12-02T01:04:33.581Z,0
2016-12-02T01:05:43.336Z,0
2016-12-02T01:06:53.052Z,0
2016-12-02T01:08:03.079Z,0
2016-12-02T01:09:13.400Z,0
2016-12-02T01:10:23.420Z,0
2016-12-02T01:11:33.764Z,0
2016-12-02T01:12:43.781Z,0
2016-12-02T01:13:53.837Z,0
2016-12-02T01:15:04.164Z,0
2016-12-02T01:16:14.175Z,0
2016-12-02T01:17:24.513Z,0
2016-12-02T01:18:34.843Z,0
2016-12-02T01:19:45.166Z,0
2016-12-02T01:20:55.173Z,0
2016-12-02T01:22:05.521Z,0
2016-12-02T01:23:15.846Z,0
2016-12-02T01:24:25.869Z,0
2016-12-02T01:25:35.564Z,0
2016-12-02T01:26:45.573Z,0
2016-12-02T01:27:55.900Z,0
2016-12-02T01:29:06.225Z,0
2016-12-02T01:30:16.242Z,0
2016-12-02T01:31:25.973Z,0
2016-12-02T01:32:35.984Z,0
2016-12-02T01:33:46.302Z,0
2016-12-02T01:34:56.323Z,0
2016-12-02T01:36:06.345Z,0
2016-12-02T01:37:16.356Z,0
2016-12-02T01:38:26.697Z,0
2016-12-02T01:39:36.404Z,0
2016-12-02T01:40:46.726Z,0
2016-12-02T01:41:56.742Z,0
2016-12-02T01:43:07.060Z,0
2016-12-02T01:44:16.762Z,0
2016-12-02T01:45:26.757Z,0
2016-12-02T01:46:37.076Z,0
2016-12-02T01:47:47.401Z,0
2016-12-02T01:48:57.425Z,0
2016-12-02T01:50:07.746Z,0
2016-12-02T01:51:17.767Z,0
2016-12-02T01:52:27.778Z,0
2016-12-02T01:53:37.485Z,0
2016-12-02T01:54:47.528Z,0
2016-12-02T01:55:57.530Z,0
2016-12-02T01:57:07.542Z,0
2016-12-02T01:58:17.260Z,0
2016-12-02T01:59:27.333Z,0
2016-12-02T02:00:37.657Z,0
2016-12-02T02:01:47.707Z,0
2016-12-02T02:02:57.724Z,0
2016-12-02T02:04:07.125Z,0
2016-12-02T02:05:17.459Z,0
2016-12-02T02:06:27.814Z,0
2016-12-02T02:07:38.135Z,0
2016-12-02T02:08:47.832Z,0
2016-12-02T02:09:58.158Z,0
2016-12-02T02:11:08.477Z,0
2016-12-02T02:12:18.793Z,0
2016-12-02T02:13:29.120Z,0
2016-12-02T02:14:39.460Z,0
2016-12-02T02:15:49.788Z,0
2016-12-02T02:17:00.115Z,0
2016-12-02T02:18:10.438Z,0
2016-12-02T02:19:21.012Z,0
2016-12-02T02:20:31.010Z,0
2016-12-02T02:21:41.037Z,0
2016-12-02T02:22:50.452Z,0
2016-12-02T02:24:00.469Z,0
2016-12-02T02:25:10.176Z,0
2016-12-02T02:26:20.495Z,0
2016-12-02T02:27:30.506Z,0
2016-12-02T02:28:40.826Z,0
2016-12-02T02:29:50.853Z,0
2016-12-02T02:31:01.184Z,0
2016-12-02T02:32:11.191Z,0
2016-12-02T02:33:21.204Z,0
2016-12-02T02:34:31.235Z,0
2016-12-02T02:35:40.620Z,0
2016-12-02T02:36:50.633Z,0
2016-12-02T02:38:00.964Z,0
2016-12-02T02:39:11.281Z,0
2016-12-02T02:40:21.287Z,0
2016-12-02T02:41:31.609Z,0
2016-12-02T02:42:41.613Z,0
2016-12-02T02:43:51.944Z,0
2016-12-02T02:45:01.960Z,0
2016-12-02T02:46:12.293Z,0
2016-12-02T02:47:21.984Z,0
2016-12-02T02:48:31.689Z,0
2016-12-02T02:49:41.431Z,0
2016-12-02T02:50:51.783Z,0
2016-12-02T02:52:01.799Z,0
2016-12-02T02:53:12.116Z,0
2016-12-02T02:54:22.128Z,0
2016-12-02T02:55:32.448Z,0
2016-12-02T02:56:42.772Z,0
2016-12-02T02:57:53.144Z,0
2016-12-02T02:59:03.158Z,0
2016-12-02T03:00:13.492Z,0
2016-12-02T03:01:23.826Z,0
2016-12-02T03:32:59.426Z,0
2016-12-02T03:34:09.169Z,0
2016-12-02T03:35:19.503Z,0
2016-12-02T03:36:29.503Z,0
2016-12-02T03:37:39.520Z,0
2016-12-02T03:38:49.849Z,0
2016-12-02T03:40:00.187Z,0
2016-12-02T03:41:10.520Z,0
2016-12-02T03:42:19.896Z,0
2016-12-02T03:43:29.907Z,0
2016-12-02T03:44:40.268Z,0
2016-12-02T03:45:50.290Z,0
2016-12-02T03:47:00.622Z,0
2016-12-02T03:48:10.999Z,0
2016-12-02T03:49:21.319Z,0
2016-12-02T03:50:31.342Z,0
2016-12-02T03:51:41.360Z,0
2016-12-02T03:52:51.696Z,0
2016-12-02T03:54:01.711Z,0
2016-12-02T03:55:11.727Z,0
2016-12-02T03:56:21.730Z,0
2016-12-02T03:57:31.753Z,0
2016-12-02T03:58:42.080Z,0
2016-12-02T03:59:52.104Z,0
2016-12-02T04:01:02.124Z,0
2016-12-02T04:02:12.139Z,0
2016-12-02T04:03:22.462Z,0
2016-12-02T04:04:32.472Z,0
2016-12-02T04:05:42.195Z,0
2016-12-02T04:06:51.892Z,0
2016-12-02T04:08:01.934Z,0
2016-12-02T04:09:12.258Z,0
2016-12-02T04:10:22.271Z,0
2016-12-02T04:11:32.286Z,0
2016-12-02T04:12:42.287Z,0
2016-12-02T04:13:52.295Z,0
2016-12-02T04:15:02.038Z,0
2016-12-02T04:16:12.062Z,0
2016-12-02T04:17:21.765Z,0
2016-12-02T04:18:32.104Z,0
2016-12-02T04:19:41.818Z,0
2016-12-02T04:20:52.175Z,0
2016-12-02T04:22:02.207Z,0
2016-12-02T04:23:12.524Z,0
2016-12-02T04:24:22.544Z,0
2016-12-02T04:25:32.868Z,0
2016-12-02T04:26:43.234Z,0
2016-12-02T04:27:53.247Z,0
2016-12-02T04:29:03.565Z,0
2016-12-02T04:30:13.894Z,0
2016-12-02T04:31:23.601Z,0
2016-12-02T04:32:33.646Z,0
2016-12-02T04:33:43.659Z,0
2016-12-02T04:34:53.686Z,0
2016-12-02T04:36:03.708Z,0
2016-12-02T04:37:14.024Z,0
2016-12-02T04:38:24.042Z,0
2016-12-02T04:39:33.744Z,0
2016-12-02T04:40:44.064Z,0
2016-12-02T04:41:54.400Z,0
2016-12-02T04:43:04.419Z,0
2016-12-02T04:44:14.749Z,0
2016-12-02T04:45:24.463Z,0
2016-12-02T04:46:34.153Z,0
2016-12-02T04:47:44.514Z,0
2016-12-02T04:48:54.845Z,0
2016-12-02T04:50:04.864Z,0
2016-12-02T04:51:14.564Z,0
2016-12-02T04:52:24.257Z,0
2016-12-02T04:53:34.575Z,0
2016-12-02T04:54:44.589Z,0
2016-12-02T04:55:54.937Z,0
2016-12-02T04:57:05.183Z,0
2016-12-02T04:58:15.498Z,0
2016-12-02T04:59:25.515Z,0
2016-12-02T05:00:35.222Z,0
2016-12-02T05:01:45.541Z,0
2016-12-02T05:02:55.874Z,0
2016-12-02T05:04:06.219Z,0
2016-12-02T05:05:16.241Z,0
2016-12-02T05:06:26.566Z,0
2016-12-02T05:07:36.888Z,0
2016-12-02T05:08:46.903Z,0
2016-12-02T05:09:57.226Z,0
2016-12-02T05:11:07.248Z,0
2016-12-02T05:12:16.949Z,0
2016-12-02T05:13:27.280Z,0
2016-12-02T05:14:36.999Z,0
2016-12-02T05:15:47.325Z,0
2016-12-02T05:16:57.328Z,0
2016-12-02T05:18:07.024Z,0
2016-12-02T05:19:17.357Z,0
2016-12-02T05:20:27.705Z,0
2016-12-02T05:21:38.027Z,0
2016-12-02T05:22:48.350Z,0
2016-12-02T05:23:58.667Z,0
2016-12-02T05:25:09.014Z,0
2016-12-02T05:26:19.026Z,0
2016-12-02T05:27:28.734Z,0
2016-12-02T05:28:39.069Z,0
2016-12-02T05:29:49.399Z,0
2016-12-02T05:30:59.752Z,0
2016-12-02T05:32:09.795Z,0
2016-12-02T05:33:19.800Z,0
2016-12-02T05:34:29.508Z,0
2016-12-02T05:35:39.197Z,0
2016-12-02T05:36:49.217Z,0
2016-12-02T05:37:59.211Z,0
2016-12-02T05:39:08.297Z,0
2016-12-02T05:40:18.316Z,0
2016-12-02T05:41:28.020Z,0
2016-12-02T05:42:38.353Z,0
2016-12-02T05:43:48.370Z,0
2016-12-02T05:44:58.385Z,0
2016-12-02T05:46:08.719Z,0
2016-12-02T05:47:18.743Z,0
2016-12-02T05:48:28.756Z,0
2016-12-02T05:49:38.773Z,0
2016-12-02T05:50:48.799Z,4
2016-12-02T05:51:59.116Z,4
2016-12-02T05:53:09.439Z,4
2016-12-02T05:54:19.760Z,4
2016-12-02T05:55:29.775Z,0
2016-12-02T05:56:39.173Z,4
2016-12-02T05:57:49.190Z,4
2016-12-02T05:58:59.525Z,4
2016-12-02T06:00:09.237Z,8
2016-12-02T06:01:19.560Z,4
2016-12-02T06:02:29.573Z,8
2016-12-02T06:03:39.595Z,8
2016-12-02T06:04:49.311Z,8
2016-12-02T06:05:58.701Z,8
2016-12-02T06:07:08.704Z,8
2016-12-02T06:08:18.713Z,12
2016-12-02T06:09:28.411Z,16
2016-12-02T06:10:38.433Z,16
2016-12-02T06:11:48.454Z,20
2016-12-02T06:12:58.790Z,24
2016-12-02T06:14:08.803Z,28
2016-12-02T06:15:18.194Z,28
2016-12-02T06:16:28.519Z,32
2016-12-02T06:17:38.557Z,36
2016-12-02T06:18:48.603Z,44
2016-12-02T06:19:58.655Z,52
2016-12-02T06:21:08.671Z,60
2016-12-02T06:22:18.688Z,68
2016-12-02T06:23:28.085Z,64
2016-12-02T06:24:37.826Z,68
2016-12-02T06:25:47.864Z,68
2016-12-02T06:26:58.190Z,80
2016-12-02T06:28:08.203Z,96
2016-12-02T06:29:18.219Z,100
2016-12-02T06:30:27.937Z,100
2016-12-02T06:31:37.653Z,108
2016-12-02T06:32:47.655Z,120
2016-12-02T06:33:57.351Z,132
2016-12-02T06:35:07.359Z,140
2016-12-02T06:36:17.689Z,156
2016-12-02T06:37:27.389Z,180
2016-12-02T06:38:37.723Z,212
2016-12-02T06:39:47.750Z,208
2016-12-02T06:40:57.805Z,184
2016-12-02T06:42:07.520Z,176
2016-12-02T06:43:17.529Z,184
2016-12-02T06:44:27.861Z,224
2016-12-02T06:45:37.869Z,248
2016-12-02T06:46:48.195Z,232
2016-12-02T06:47:58.531Z,220
2016-12-02T06:49:08.848Z,248
2016-12-02T06:50:18.555Z,276
2016-12-02T06:51:28.252Z,256
2016-12-02T06:52:38.022Z,224
2016-12-02T06:53:48.341Z,196
2016-12-02T06:54:58.368Z,208
2016-12-02T06:56:08.388Z,244
2016-12-02T06:57:18.415Z,284
2016-12-02T06:58:28.432Z,280
2016-12-02T06:59:38.763Z,280
2016-12-02T07:00:48.460Z,276
2016-12-02T07:01:58.153Z,252
2016-12-02T07:03:07.855Z,272
2016-12-02T07:04:18.195Z,264
2016-12-02T07:05:28.221Z,280
2016-12-02T07:06:38.238Z,296
2016-12-02T07:07:48.250Z,352
2016-12-02T07:08:58.631Z,444
2016-12-02T07:10:08.029Z,384
2016-12-02T07:11:17.421Z,376
2016-12-02T07:12:27.766Z,328
2016-12-02T07:13:38.084Z,312
2016-12-02T07:14:48.426Z,288
2016-12-02T07:15:58.758Z,292
2016-12-02T07:17:08.808Z,288
2016-12-02T07:18:18.516Z,304
2016-12-02T07:19:28.538Z,304
2016-12-02T07:20:38.870Z,296
2016-12-02T07:21:48.585Z,316
2016-12-02T07:22:58.954Z,360
2016-12-02T07:24:09.286Z,420
2016-12-02T07:25:19.302Z,440
2016-12-02T07:26:29.637Z,468
2016-12-02T07:27:39.664Z,504
2016-12-02T07:28:49.992Z,532
2016-12-02T07:30:00.008Z,524
2016-12-02T07:31:10.032Z,496
2016-12-02T07:32:20.362Z,456
2016-12-02T07:33:30.693Z,436
2016-12-02T07:34:40.717Z,492
2016-12-02T07:35:50.429Z,572
2016-12-02T07:37:00.450Z,612
2016-12-02T07:38:10.791Z,656
2016-12-02T07:39:21.108Z,648
2016-12-02T07:40:31.450Z,680
2016-12-02T07:41:41.472Z,720
2016-12-02T07:42:51.182Z,872
2016-12-02T07:44:01.199Z,968
2016-12-02T07:45:11.220Z,1100
2016-12-02T07:46:20.945Z,1164
2016-12-02T07:47:31.273Z,1320
2016-12-02T07:48:41.596Z,1504
2016-12-02T07:49:51.628Z,1592
2016-12-02T07:51:01.969Z,1628
2016-12-02T07:52:11.677Z,2044
2016-12-02T07:53:21.700Z,1804
2016-12-02T07:54:32.035Z,2028
2016-12-02T07:55:42.372Z,1708
2016-12-02T07:56:52.377Z,2016
2016-12-02T07:58:02.085Z,1888
2016-12-02T07:59:12.676Z,2236
2016-12-02T08:00:23.017Z,1804
2016-12-02T08:01:32.716Z,2184
2016-12-02T08:02:43.057Z,1924
2016-12-02T08:03:53.381Z,1996
2016-12-02T08:05:03.406Z,1744
2016-12-02T08:06:13.754Z,1592
2016-12-02T08:07:24.084Z,1628
2016-12-02T08:08:34.102Z,1648
2016-12-02T08:09:44.129Z,1472
2016-12-02T08:10:54.447Z,1260
2016-12-02T08:12:04.769Z,1096
2016-12-02T08:13:15.124Z,940
2016-12-02T08:14:24.843Z,828
2016-12-02T08:15:34.228Z,772
2016-12-02T08:16:44.184Z,708
2016-12-02T08:17:54.520Z,612
2016-12-02T08:19:04.854Z,580
2016-12-02T08:20:14.870Z,604
2016-12-02T08:21:24.895Z,576
2016-12-02T08:22:35.203Z,544
2016-12-02T08:23:45.528Z,488
2016-12-02T08:24:55.857Z,412
2016-12-02T08:26:06.201Z,416
2016-12-02T08:27:16.220Z,432
2016-12-02T08:28:26.542Z,448
2016-12-02T08:29:36.887Z,508
2016-12-02T08:30:46.604Z,484
2016-12-02T08:31:56.941Z,404
2016-12-02T08:33:06.977Z,404
2016-12-02T08:34:17.003Z,416
2016-12-02T08:35:27.332Z,368
2016-12-02T08:36:37.361Z,340
2016-12-02T08:37:47.074Z,352
2016-12-02T08:38:57.395Z,360
2016-12-02T08:40:07.742Z,336
2016-12-02T08:41:18.078Z,356
2016-12-02T08:42:28.410Z,400
2016-12-02T08:43:38.436Z,384
2016-12-02T08:44:48.458Z,328
2016-12-02T08:45:57.859Z,300
2016-12-02T08:47:08.182Z,288
2016-12-02T08:48:18.215Z,272
2016-12-02T08:49:28.535Z,304
2016-12-02T08:50:38.246Z,308
2016-12-02T08:51:48.574Z,388
2016-12-02T08:52:58.599Z,464
2016-12-02T08:54:08.927Z,428
2016-12-02T08:55:19.259Z,448
2016-12-02T08:56:29.295Z,512
2016-12-02T08:57:39.338Z,468
2016-12-02T08:58:49.353Z,452
2016-12-02T08:59:59.370Z,524
2016-12-02T09:01:09.386Z,660
2016-12-02T09:02:19.411Z,744
2016-12-02T09:03:29.740Z,744
2016-12-02T09:04:40.076Z,748
2016-12-02T09:05:50.405Z,764
2016-12-02T09:07:00.725Z,812
2016-12-02T09:08:10.737Z,964
2016-12-02T09:09:21.053Z,1040
2016-12-02T09:10:31.379Z,1160
2016-12-02T09:11:41.732Z,1384
2016-12-02T09:12:51.743Z,1752
2016-12-02T09:14:01.473Z,2056
2016-12-02T09:15:11.883Z,2344
2016-12-02T09:16:21.929Z,2440
2016-12-02T09:17:31.965Z,2456
2016-12-02T09:18:42.319Z,2376
2016-12-02T09:19:52.713Z,2472
2016-12-02T09:21:02.755Z,2684
2016-12-02T09:22:12.142Z,2816
2016-12-02T09:23:21.850Z,2640
2016-12-02T09:24:32.216Z,2412
2016-12-02T09:25:42.252Z,2344
2016-12-02T09:26:52.274Z,2380
2016-12-02T09:28:01.995Z,2280
2016-12-02T09:29:12.011Z,2212
2016-12-02T09:30:22.063Z,2080
2016-12-02T09:31:32.405Z,2016
2016-12-02T09:32:42.767Z,2060
2016-12-02T09:33:52.799Z,2108
2016-12-02T09:35:02.831Z,2188
2016-12-02T09:36:12.260Z,2336
2016-12-02T09:37:22.585Z,2420
2016-12-02T09:38:32.306Z,2300
2016-12-02T09:39:42.673Z,2152
2016-12-02T09:40:52.714Z,2064
2016-12-02T09:42:02.741Z,2096
2016-12-02T09:43:12.443Z,2248
2016-12-02T09:44:22.770Z,2368
2016-12-02T09:45:32.167Z,2380
2016-12-02T09:46:42.208Z,2388
2016-12-02T09:47:52.535Z,2404
2016-12-02T09:49:02.853Z,2300
2016-12-02T09:50:12.873Z,2240
2016-12-02T09:51:22.596Z,2288
2016-12-02T09:52:32.931Z,2328
2016-12-02T09:53:43.259Z,2240
2016-12-02T09:54:53.260Z,2224
2016-12-02T09:56:03.056Z,2228
2016-12-02T09:57:13.399Z,2268
2016-12-02T09:58:23.739Z,2448
2016-12-02T09:59:34.073Z,2616
2016-12-02T10:00:44.395Z,2624
2016-12-02T10:01:54.423Z,2560
2016-12-02T10:03:04.752Z,2496
2016-12-02T10:04:14.790Z,2548
2016-12-02T10:05:24.806Z,2508
2016-12-02T10:06:34.504Z,2468
2016-12-02T10:07:44.210Z,2448
2016-12-02T10:08:54.247Z,2520
2016-12-02T10:10:04.574Z,2588
2016-12-02T10:11:14.912Z,2624
2016-12-02T10:12:24.920Z,2516
2016-12-02T10:13:35.259Z,2388
2016-12-02T10:14:45.279Z,2256
2016-12-02T10:15:55.281Z,2104
2016-12-02T10:17:05.620Z,2128
2016-12-02T10:18:15.957Z,2332
2016-12-02T10:19:25.981Z,2580
2016-12-02T10:20:36.319Z,2640
2016-12-02T10:21:46.371Z,2780
2016-12-02T10:22:56.702Z,2768
2016-12-02T10:24:06.723Z,2408
2016-12-02T10:25:16.755Z,2552
2016-12-02T10:26:26.776Z,2652
2016-12-02T10:27:36.804Z,2756
2016-12-02T10:28:46.511Z,2740
2016-12-02T10:29:56.552Z,2884
2016-12-02T10:31:06.555Z,3284
2016-12-02T10:32:16.879Z,3628
2016-12-02T10:33:27.203Z,3812
2016-12-02T10:34:37.221Z,3936
2016-12-02T10:35:47.246Z,3984
2016-12-02T10:36:57.591Z,4292
2016-12-02T10:38:07.916Z,4072
2016-12-02T10:39:18.235Z,3800
2016-12-02T10:40:28.558Z,3880
2016-12-02T10:41:38.590Z,3876
2016-12-02T10:42:48.913Z,3796
2016-12-02T10:43:58.968Z,3700
2016-12-02T10:45:08.676Z,3636
2016-12-02T10:46:18.701Z,3736
2016-12-02T10:47:29.039Z,3732
2016-12-02T10:48:39.064Z,3652
2016-12-02T10:49:49.411Z,3568
2016-12-02T10:50:59.811Z,3628
2016-12-02T10:52:10.236Z,3624
2016-12-02T10:53:19.946Z,3704
2016-12-02T10:54:29.948Z,3708
2016-12-02T10:55:39.656Z,3764
2016-12-02T10:56:50.086Z,3788
2016-12-02T10:58:00.105Z,3756
2016-12-02T10:59:10.144Z,3604
2016-12-02T11:00:20.162Z,3504
2016-12-02T11:01:30.176Z,3504
2016-12-02T11:02:40.605Z,3512
2016-12-02T11:03:50.952Z,3580
2016-12-02T11:05:01.266Z,3752
2016-12-02T11:12:32.329Z,3676
2016-12-02T11:13:42.675Z,3468
2016-12-02T11:14:52.692Z,3356
2016-12-02T11:16:03.013Z,3380
2016-12-02T11:17:12.722Z,3404
2016-12-02T11:18:22.756Z,3436
2016-12-02T11:19:33.085Z,3432
2016-12-02T11:20:42.792Z,3484
2016-12-02T11:21:53.121Z,3592
2016-12-02T11:23:03.459Z,3616
2016-12-02T11:24:13.791Z,3992
2016-12-02T11:25:24.127Z,3808
2016-12-02T11:26:34.149Z,3956
2016-12-02T11:27:44.493Z,3728
2016-12-02T11:28:54.503Z,3908
2016-12-02T11:30:04.519Z,5992
2016-12-02T11:31:14.866Z,4692
2016-12-02T11:32:24.887Z,3448
2016-12-02T11:33:34.884Z,3144
2016-12-02T11:34:44.577Z,3008
2016-12-02T11:35:54.903Z,2924
2016-12-02T11:37:05.224Z,2940
2016-12-02T11:38:15.556Z,3036
2016-12-02T11:39:25.588Z,3116
2016-12-02T11:40:35.606Z,3136
2016-12-02T11:41:45.926Z,3076
2016-12-02T11:42:55.945Z,3052
2016-12-02T11:44:06.274Z,3000
2016-12-02T11:45:16.292Z,2976
2016-12-02T11:46:26.650Z,2980
2016-12-02T11:47:36.348Z,3028
2016-12-02T11:48:46.363Z,3200
2016-12-02T11:49:56.385Z,3256
2016-12-02T11:51:06.725Z,3240
2016-12-02T11:52:16.758Z,3264
2016-12-02T11:53:26.464Z,3260
2016-12-02T11:54:36.481Z,3200
2016-12-02T11:55:46.808Z,3224
2016-12-02T11:56:56.509Z,3180
2016-12-02T11:58:06.526Z,3004
2016-12-02T11:59:16.217Z,2968
2016-12-02T12:00:26.260Z,2976
2016-12-02T12:01:35.962Z,2928
2016-12-02T12:02:46.289Z,2956
2016-12-02T12:03:56.318Z,2972
2016-12-02T12:05:06.342Z,2964
2016-12-02T12:06:16.357Z,3008
2016-12-02T12:07:26.379Z,2916
2016-12-02T12:08:36.707Z,2816
2016-12-02T12:09:46.768Z,2700
2016-12-02T12:10:56.792Z,2784
2016-12-02T12:12:07.127Z,2468
2016-12-02T12:13:16.839Z,2536
2016-12-02T12:14:26.851Z,2104
2016-12-02T12:15:37.172Z,2080
2016-12-02T12:16:47.208Z,2080
2016-12-02T12:17:57.235Z,2104
2016-12-02T12:19:07.253Z,2116
2016-12-02T12:20:17.278Z,2140
2016-12-02T12:21:27.606Z,2124
2016-12-02T12:22:37.318Z,1888
2016-12-02T12:23:47.643Z,1872
2016-12-02T12:24:57.974Z,1852
2016-12-02T12:26:08.021Z,1904
2016-12-02T12:27:18.343Z,1936
2016-12-02T12:28:28.371Z,1944
2016-12-02T12:29:38.412Z,1864
2016-12-02T12:30:48.449Z,1856
2016-12-02T12:31:58.465Z,1848
2016-12-02T12:33:08.487Z,3384
2016-12-02T12:34:18.824Z,2108
2016-12-02T12:35:28.848Z,1788
2016-12-02T12:36:39.212Z,1664
2016-12-02T12:37:49.534Z,1704
2016-12-02T12:38:59.543Z,1736
2016-12-02T12:40:09.854Z,1736
2016-12-02T12:41:19.865Z,1796
2016-12-02T12:42:29.615Z,1884
2016-12-02T12:43:39.979Z,1888
2016-12-02T12:44:50.316Z,2036
2016-12-02T12:46:00.646Z,1924
2016-12-02T12:47:10.373Z,2520
2016-12-02T12:48:20.407Z,7324
2016-12-02T12:49:30.123Z,6960
2016-12-02T12:50:39.884Z,6160
2016-12-02T12:51:49.910Z,6852
2016-12-02T12:52:59.938Z,2288
2016-12-02T12:54:10.310Z,2280
2016-12-02T12:55:20.641Z,6276
2016-12-02T12:56:30.040Z,6120
2016-12-02T12:57:40.078Z,5012
2016-12-02T12:58:50.080Z,2832
2016-12-02T13:00:00.098Z,3408
2016-12-02T13:01:10.429Z,5956
2016-12-02T13:02:20.756Z,5824
2016-12-02T13:03:30.787Z,5748
2016-12-02T13:04:40.801Z,5656
2016-12-02T13:05:50.512Z,5604
2016-12-02T13:07:00.840Z,5632
2016-12-02T13:08:10.854Z,5548
2016-12-02T13:09:21.202Z,5496
2016-12-02T13:10:31.535Z,5452
2016-12-02T13:11:41.258Z,5404
2016-12-02T13:12:51.276Z,5332
2016-12-02T13:14:01.307Z,5256
2016-12-02T13:15:11.329Z,5212
2016-12-02T13:16:21.741Z,5148
2016-12-02T13:17:31.445Z,5084
2016-12-02T13:18:41.772Z,5048
2016-12-02T13:19:51.502Z,4956
2016-12-02T13:21:01.528Z,4932
2016-12-02T13:22:11.565Z,4892
2016-12-02T13:23:21.591Z,4812
2016-12-02T13:24:31.604Z,4752
2016-12-02T13:25:41.306Z,4688
2016-12-02T13:26:51.322Z,4620
2016-12-02T13:28:01.647Z,4564
2016-12-02T13:29:11.990Z,4504
2016-12-02T13:30:22.017Z,4488
2016-12-02T13:31:32.338Z,4400
2016-12-02T13:32:42.357Z,4360
2016-12-02T13:33:52.687Z,4312
2016-12-02T13:35:02.395Z,4280
2016-12-02T13:36:12.420Z,4304
2016-12-02T13:37:22.447Z,4324
2016-12-02T13:38:32.463Z,4276
2016-12-02T13:39:42.795Z,4212
2016-12-02T13:40:52.823Z,4156
2016-12-02T13:42:03.160Z,4096
2016-12-02T13:43:13.187Z,4096
2016-12-02T13:44:23.205Z,4032
2016-12-02T13:45:33.549Z,3896
2016-12-02T13:46:43.880Z,3724
2016-12-02T13:47:54.222Z,3628
2016-12-02T13:49:04.549Z,3556
2016-12-02T13:50:14.888Z,3532
2016-12-02T13:51:25.234Z,3468
2016-12-02T13:52:35.579Z,3452
2016-12-02T13:53:45.932Z,3408
2016-12-02T13:54:56.256Z,3400
2016-12-02T13:56:06.589Z,3368
2016-12-02T13:57:16.925Z,3284
2016-12-02T13:58:26.628Z,3188
2016-12-02T13:59:36.639Z,3072
2016-12-02T14:00:46.967Z,2992
2016-12-02T14:01:57.327Z,2956
2016-12-02T14:03:07.034Z,2912
2016-12-02T14:04:17.365Z,2872
2016-12-02T14:05:27.707Z,2844
2016-12-02T14:06:37.423Z,2800
2016-12-02T14:07:47.443Z,2680
2016-12-02T14:08:57.779Z,2536
2016-12-02T14:10:07.186Z,2332
2016-12-02T14:11:17.551Z,2104
2016-12-02T14:12:27.282Z,1808
2016-12-02T14:13:37.610Z,1876
2016-12-02T14:14:47.321Z,1760
2016-12-02T14:15:57.658Z,1632
2016-12-02T14:17:07.675Z,1496
2016-12-02T14:18:17.368Z,1432
2016-12-02T14:19:27.698Z,1400
2016-12-02T14:20:37.723Z,1352
2016-12-02T14:21:47.743Z,1256
2016-12-02T14:22:57.776Z,1180
2016-12-02T14:24:08.114Z,1132
2016-12-02T14:25:18.127Z,1092
2016-12-02T14:26:28.447Z,1052
2016-12-02T14:27:38.775Z,992
2016-12-02T14:28:49.107Z,940
2016-12-02T14:29:59.117Z,900
2016-12-02T14:31:08.825Z,860
2016-12-02T14:32:19.172Z,824
2016-12-02T14:33:29.199Z,792
2016-12-02T14:34:39.232Z,764
2016-12-02T14:35:49.570Z,728
2016-12-02T14:36:59.278Z,684
2016-12-02T14:38:09.321Z,656
2016-12-02T14:39:19.328Z,612
2016-12-02T14:40:29.358Z,584
2016-12-02T14:41:39.378Z,548
2016-12-02T14:42:49.413Z,520
2016-12-02T14:43:59.724Z,488
2016-12-02T14:45:10.073Z,464
2016-12-02T14:46:20.111Z,436
2016-12-02T14:47:30.154Z,412
2016-12-02T14:48:40.187Z,392
2016-12-02T14:49:50.520Z,368
2016-12-02T14:51:00.238Z,344
2016-12-02T14:52:10.579Z,320
2016-12-02T14:53:20.582Z,296
2016-12-02T14:54:31.159Z,276
2016-12-02T14:55:41.193Z,256
2016-12-02T14:56:51.211Z,236
2016-12-02T14:58:01.560Z,220
2016-12-02T14:59:11.900Z,200
2016-12-02T15:00:22.260Z,180
2016-12-02T15:01:32.278Z,160
2016-12-02T15:02:42.611Z,148
2016-12-02T15:03:52.313Z,128
2016-12-02T15:05:02.363Z,116
2016-12-02T15:06:12.720Z,100
2016-12-02T15:07:23.077Z,88
2016-12-02T15:08:33.420Z,76
2016-12-02T15:09:43.753Z,68
2016-12-02T15:10:53.766Z,60
2016-12-02T15:12:03.483Z,52
2016-12-02T15:13:13.182Z,44
2016-12-02T15:14:23.202Z,40
2016-12-02T15:15:32.922Z,32
2016-12-02T15:16:42.644Z,28
2016-12-02T15:17:52.977Z,24
2016-12-02T15:19:03.004Z,20
2016-12-02T15:20:13.022Z,16
2016-12-02T15:21:23.039Z,16
2016-12-02T15:22:33.048Z,12
2016-12-02T15:23:43.088Z,12
2016-12-02T15:24:53.415Z,8
2016-12-02T15:26:03.787Z,8
2016-12-02T15:27:13.488Z,8
2016-12-02T15:28:23.837Z,8
2016-12-02T15:29:33.853Z,4
2016-12-02T15:30:43.871Z,4
2016-12-02T15:31:53.565Z,0
2016-12-02T15:33:03.584Z,4
2016-12-02T15:34:13.922Z,0
2016-12-02T15:35:23.944Z,0
2016-12-02T15:36:33.955Z,4
2016-12-02T15:37:43.986Z,4
2016-12-02T15:38:54.017Z,4
2016-12-02T15:40:04.042Z,0
2016-12-02T15:41:13.759Z,0
2016-12-02T15:42:23.821Z,0
2016-12-02T15:43:34.164Z,0
2016-12-02T15:44:44.203Z,0
2016-12-02T15:45:54.591Z,0
2016-12-02T15:47:04.619Z,0
2016-12-02T15:48:14.983Z,0
2016-12-02T15:49:25.321Z,0
2016-12-02T15:50:35.348Z,0
2016-12-02T15:51:45.367Z,0
2016-12-02T15:52:55.386Z,0
2016-12-02T15:54:05.413Z,0
2016-12-02T15:55:15.749Z,0
2016-12-02T15:56:26.081Z,0
2016-12-02T15:57:36.097Z,0
2016-12-02T15:58:46.114Z,0
2016-12-02T15:59:56.131Z,0
2016-12-02T16:01:06.480Z,0
2016-12-02T16:02:16.815Z,0
2016-12-02T16:03:27.156Z,0
2016-12-02T16:04:37.167Z,0
2016-12-02T16:05:47.201Z,0
2016-12-02T16:06:57.522Z,0
2016-12-02T16:08:07.858Z,0
2016-12-02T16:09:17.886Z,0
2016-12-02T16:10:28.206Z,0
2016-12-02T16:11:38.224Z,0
2016-12-02T16:12:48.241Z,0
2016-12-02T16:13:58.582Z,0
2016-12-02T16:15:08.927Z,0
2016-12-02T16:16:19.250Z,0
2016-12-02T16:17:29.271Z,0
2016-12-02T16:18:39.613Z,0
2016-12-02T16:19:49.985Z,0
2016-12-02T16:21:00.316Z,0
2016-12-02T16:22:10.344Z,0
2016-12-02T16:23:20.731Z,0
2016-12-02T16:24:31.093Z,0
2016-12-02T16:25:40.795Z,0
2016-12-02T16:26:51.155Z,0
2016-12-02T16:28:01.497Z,0
2016-12-02T16:29:11.827Z,0
2016-12-02T16:30:21.840Z,0
2016-12-02T16:31:32.167Z,0
2016-12-02T16:32:42.196Z,0
2016-12-02T16:33:52.551Z,0
2016-12-02T16:35:02.886Z,0
2016-12-02T16:36:12.899Z,0
2016-12-02T16:37:23.250Z,0
2016-12-02T16:38:33.576Z,0
2016-12-02T16:39:43.280Z,0
2016-12-02T16:40:53.607Z,0
2016-12-02T16:42:03.629Z,0
2016-12-02T16:43:13.995Z,0
2016-12-02T16:44:24.331Z,0
2016-12-02T16:45:34.687Z,0
2016-12-02T16:46:44.702Z,0
2016-12-02T16:47:55.040Z,0
2016-12-02T16:49:05.362Z,0
2016-12-02T16:50:15.395Z,0
2016-12-02T16:51:25.414Z,0
2016-12-02T16:52:35.739Z,0
2016-12-02T16:53:46.086Z,0
2016-12-02T16:54:56.110Z,0
2016-12-02T16:56:06.448Z,0
2016-12-02T16:57:16.771Z,0
2016-12-02T16:58:26.795Z,0
2016-12-02T16:59:37.117Z,0
2016-12-02T17:00:47.151Z,0